createdAt,value
2018-10-03T00:00:28.389Z,0.00
2018-10-03T00:01:28.600Z,0.00
2018-10-03T00:02:28.409Z,0.00
2018-10-03T00:03:28.418Z,0.00
2018-10-03T00:04:28.416Z,0.00
2018-10-03T00:05:28.409Z,0.00
2018-10-03T00:06:28.421Z,0.00
2018-10-03T00:07:28.622Z,0.00
2018-10-03T00:08:28.624Z,0.00
2018-10-03T00:09:28.644Z,0.00
2018-10-03T00:10:28.429Z,0.00
2018-10-03T00:11:28.452Z,0.00
2018-10-03T00:12:28.440Z,0.00
2018-10-03T00:13:28.442Z,0.00
2018-10-03T00:14:28.464Z,0.00
2018-10-03T00:15:28.451Z,0.00
2018-10-03T00:16:28.459Z,0.00
2018-10-03T00:17:28.457Z,0.00
2018-10-03T00:18:28.465Z,0.00
2018-10-03T00:19:28.478Z,0.00
2018-10-03T00:20:28.471Z,0.00
2018-10-03T00:21:28.475Z,0.00
2018-10-03T00:22:28.493Z,0.00
2018-10-03T00:23:28.525Z,0.00
2018-10-03T00:24:28.489Z,0.00
2018-10-03T00:25:28.504Z,0.00
2018-10-03T00:26:28.508Z,0.00
2018-10-03T00:27:28.721Z,0.00
2018-10-03T00:28:28.523Z,0.00
2018-10-03T00:29:28.511Z,0.00
2018-10-03T00:30:28.718Z,0.00
2018-10-03T00:31:28.519Z,0.00
2018-10-03T00:32:28.740Z,0.00
2018-10-03T00:33:28.525Z,0.00
2018-10-03T00:34:28.532Z,0.00
2018-10-03T00:35:28.536Z,0.00
2018-10-03T00:36:28.539Z,0.00
2018-10-03T00:37:28.541Z,0.00
2018-10-03T00:38:28.548Z,0.00
2018-10-03T00:39:28.550Z,0.00
2018-10-03T00:40:28.556Z,0.00
2018-10-03T00:41:28.563Z,0.00
2018-10-03T00:42:28.561Z,0.00
2018-10-03T00:43:28.779Z,0.00
2018-10-03T00:44:28.573Z,0.00
2018-10-03T00:45:28.576Z,0.00
2018-10-03T00:46:28.578Z,0.00
2018-10-03T00:47:28.586Z,0.00
2018-10-03T00:48:28.589Z,0.00
2018-10-03T00:49:28.794Z,0.00
2018-10-03T00:50:28.596Z,0.00
2018-10-03T00:51:28.814Z,0.00
2018-10-03T00:52:28.607Z,0.00
2018-10-03T00:53:28.608Z,0.00
2018-10-03T00:54:28.814Z,0.00
2018-10-03T00:55:28.832Z,0.00
2018-10-03T00:56:28.633Z,0.00
2018-10-03T00:57:28.650Z,0.00
2018-10-03T00:58:28.845Z,0.00
2018-10-03T00:59:28.645Z,0.00
2018-10-03T01:00:28.649Z,0.00
2018-10-03T01:01:28.844Z,0.00
2018-10-03T01:02:28.646Z,0.00
2018-10-03T01:03:28.667Z,0.00
2018-10-03T01:04:28.657Z,0.00
2018-10-03T01:05:28.658Z,0.00
2018-10-03T01:06:28.674Z,0.00
2018-10-03T01:07:28.904Z,0.00
2018-10-03T01:08:28.674Z,0.00
2018-10-03T01:09:28.674Z,0.00
2018-10-03T01:10:28.691Z,0.00
2018-10-03T01:11:28.695Z,0.00
2018-10-03T01:12:28.704Z,0.00
2018-10-03T01:13:28.697Z,0.00
2018-10-03T01:14:28.695Z,0.00
2018-10-03T01:15:28.746Z,0.00
2018-10-03T01:16:28.716Z,0.00
2018-10-03T01:17:28.708Z,0.00
2018-10-03T01:18:28.723Z,0.00
2018-10-03T01:19:28.749Z,0.00
2018-10-03T01:20:28.923Z,0.00
2018-10-03T01:21:28.724Z,0.00
2018-10-03T01:22:28.930Z,0.00
2018-10-03T01:23:28.734Z,0.00
2018-10-03T01:24:28.941Z,0.00
2018-10-03T01:25:28.942Z,0.00
2018-10-03T01:26:28.744Z,0.00
2018-10-03T01:27:28.954Z,0.00
2018-10-03T01:28:28.756Z,0.00
2018-10-03T01:29:28.754Z,0.00
2018-10-03T01:30:28.767Z,0.00
2018-10-03T01:31:28.777Z,0.00
2018-10-03T01:32:28.769Z,0.00
2018-10-03T01:33:29.002Z,0.00
2018-10-03T01:34:28.775Z,0.00
2018-10-03T01:35:28.780Z,0.00
2018-10-03T01:36:28.787Z,0.00
2018-10-03T01:37:28.993Z,0.00
2018-10-03T01:38:28.878Z,0.00
2018-10-03T01:39:28.798Z,0.00
2018-10-03T01:40:29.005Z,0.00
2018-10-03T01:41:28.818Z,0.00
2018-10-03T01:42:28.810Z,0.00
2018-10-03T01:43:28.826Z,0.00
2018-10-03T01:44:29.042Z,0.00
2018-10-03T01:45:28.834Z,0.00
2018-10-03T01:46:29.041Z,0.00
2018-10-03T01:47:28.830Z,0.00
2018-10-03T01:48:28.836Z,0.00
2018-10-03T01:49:29.054Z,0.00
2018-10-03T01:50:28.843Z,0.00
2018-10-03T01:51:28.881Z,0.00
2018-10-03T01:52:28.853Z,0.00
2018-10-03T01:53:28.858Z,0.00
2018-10-03T01:54:28.861Z,0.00
2018-10-03T01:55:29.078Z,0.00
2018-10-03T01:56:28.868Z,0.00
2018-10-03T01:57:28.872Z,0.00
2018-10-03T01:58:28.924Z,0.00
2018-10-03T01:59:28.887Z,0.00
2018-10-03T02:00:28.887Z,0.00
2018-10-03T02:01:29.090Z,0.00
2018-10-03T02:02:28.889Z,0.00
2018-10-03T02:03:28.897Z,0.00
2018-10-03T02:04:28.905Z,0.00
2018-10-03T02:05:28.904Z,0.00
2018-10-03T02:06:28.907Z,0.00
2018-10-03T02:07:29.114Z,0.00
2018-10-03T02:08:28.915Z,0.00
2018-10-03T02:09:28.919Z,0.00
2018-10-03T02:10:28.937Z,0.00
2018-10-03T02:11:29.155Z,0.00
2018-10-03T02:12:28.950Z,0.00
2018-10-03T02:13:28.936Z,0.00
2018-10-03T02:14:28.941Z,0.00
2018-10-03T02:15:29.151Z,0.00
2018-10-03T02:16:28.949Z,0.00
2018-10-03T02:17:28.952Z,0.00
2018-10-03T02:18:28.969Z,0.00
2018-10-03T02:19:28.960Z,0.00
2018-10-03T02:20:28.987Z,0.00
2018-10-03T02:21:29.172Z,0.00
2018-10-03T02:22:29.204Z,0.00
2018-10-03T02:23:28.976Z,0.00
2018-10-03T02:24:29.194Z,0.00
2018-10-03T02:25:28.985Z,0.00
2018-10-03T02:26:29.204Z,0.00
2018-10-03T02:27:28.993Z,0.00
2018-10-03T02:28:28.998Z,0.00
2018-10-03T02:29:29.214Z,0.00
2018-10-03T02:30:29.005Z,0.00
2018-10-03T02:31:29.009Z,0.00
2018-10-03T02:32:29.231Z,0.00
2018-10-03T02:33:29.037Z,0.00
2018-10-03T02:34:29.039Z,0.00
2018-10-03T02:35:29.043Z,0.00
2018-10-03T02:36:29.045Z,0.00
2018-10-03T02:37:29.055Z,0.00
2018-10-03T02:38:29.048Z,0.00
2018-10-03T02:39:29.046Z,0.00
2018-10-03T02:40:29.081Z,0.00
2018-10-03T02:41:29.083Z,0.00
2018-10-03T02:42:29.072Z,0.00
2018-10-03T02:43:29.132Z,0.00
2018-10-03T02:44:29.075Z,0.00
2018-10-03T02:45:29.104Z,0.00
2018-10-03T02:46:29.098Z,0.00
2018-10-03T02:47:29.309Z,0.00
2018-10-03T02:48:29.094Z,0.00
2018-10-03T02:49:29.100Z,0.00
2018-10-03T02:50:29.100Z,0.00
2018-10-03T02:51:29.094Z,0.00
2018-10-03T02:52:29.103Z,0.00
2018-10-03T02:53:29.100Z,0.00
2018-10-03T02:54:29.101Z,0.00
2018-10-03T02:55:29.116Z,0.00
2018-10-03T02:56:29.113Z,0.00
2018-10-03T02:57:29.119Z,0.00
2018-10-03T02:58:29.120Z,0.00
2018-10-03T02:59:29.122Z,0.00
2018-10-03T03:00:29.127Z,0.00
2018-10-03T03:01:29.232Z,0.00
2018-10-03T03:02:29.135Z,0.00
2018-10-03T03:03:29.155Z,0.00
2018-10-03T03:04:29.164Z,0.00
2018-10-03T03:05:29.157Z,0.00
2018-10-03T03:06:29.160Z,0.00
2018-10-03T03:07:29.157Z,0.00
2018-10-03T03:08:29.202Z,0.00
2018-10-03T03:09:29.173Z,0.00
2018-10-03T03:10:29.181Z,0.00
2018-10-03T03:11:29.204Z,0.00
2018-10-03T03:12:29.261Z,0.00
2018-10-03T03:13:29.278Z,0.00
2018-10-03T03:14:29.232Z,0.00
2018-10-03T03:15:29.186Z,0.00
2018-10-03T03:16:29.204Z,0.00
2018-10-03T03:17:29.205Z,0.00
2018-10-03T03:18:29.198Z,0.00
2018-10-03T03:19:29.213Z,0.00
2018-10-03T03:20:29.209Z,0.00
2018-10-03T03:21:29.210Z,0.00
2018-10-03T03:22:29.216Z,0.00
2018-10-03T03:23:29.222Z,0.00
2018-10-03T03:24:29.221Z,0.00
2018-10-03T03:25:29.238Z,0.00
2018-10-03T03:26:29.232Z,0.00
2018-10-03T03:27:29.254Z,0.00
2018-10-03T03:28:29.237Z,0.00
2018-10-03T03:29:29.242Z,0.00
2018-10-03T03:30:29.259Z,0.00
2018-10-03T03:31:29.250Z,0.00
2018-10-03T03:32:29.256Z,0.00
2018-10-03T03:33:29.268Z,0.00
2018-10-03T03:34:29.276Z,0.00
2018-10-03T03:35:29.267Z,0.00
2018-10-03T03:36:29.281Z,0.00
2018-10-03T03:37:29.272Z,0.00
2018-10-03T03:38:29.278Z,0.00
2018-10-03T03:39:29.285Z,0.00
2018-10-03T03:40:29.296Z,0.00
2018-10-03T03:41:29.293Z,0.00
2018-10-03T03:42:29.297Z,0.00
2018-10-03T03:43:29.317Z,0.00
2018-10-03T03:44:29.328Z,0.00
2018-10-03T03:45:29.320Z,0.00
2018-10-03T03:46:29.342Z,0.00
2018-10-03T03:48:29.327Z,0.00
2018-10-03T03:49:29.320Z,0.00
2018-10-03T03:50:29.334Z,0.00
2018-10-03T03:51:29.343Z,0.00
2018-10-03T03:52:29.344Z,0.00
2018-10-03T03:53:29.338Z,0.00
2018-10-03T03:54:29.341Z,0.00
2018-10-03T03:55:29.355Z,0.00
2018-10-03T03:56:29.359Z,0.00
2018-10-03T03:57:29.353Z,0.00
2018-10-03T03:58:29.356Z,0.00
2018-10-03T03:59:29.390Z,0.00
2018-10-03T04:00:29.366Z,0.00
2018-10-03T04:01:29.370Z,0.00
2018-10-03T04:02:29.382Z,0.00
2018-10-03T04:03:29.398Z,0.00
2018-10-03T04:04:29.390Z,0.00
2018-10-03T04:05:29.386Z,0.00
2018-10-03T04:06:29.388Z,0.00
2018-10-03T04:07:29.420Z,0.00
2018-10-03T04:08:29.408Z,0.00
2018-10-03T04:09:29.418Z,0.00
2018-10-03T04:10:29.404Z,0.00
2018-10-03T04:11:29.422Z,0.00
2018-10-03T04:12:29.414Z,0.00
2018-10-03T04:13:29.418Z,0.00
2018-10-03T04:14:29.438Z,0.00
2018-10-03T04:15:29.429Z,0.00
2018-10-03T04:16:29.444Z,0.00
2018-10-03T04:17:29.448Z,0.00
2018-10-03T04:18:29.449Z,0.00
2018-10-03T04:19:29.456Z,0.00
2018-10-03T04:20:29.445Z,0.00
2018-10-03T04:21:29.493Z,0.00
2018-10-03T04:22:29.455Z,0.00
2018-10-03T04:23:29.457Z,0.00
2018-10-03T04:24:29.466Z,0.00
2018-10-03T04:25:29.467Z,0.00
2018-10-03T04:26:29.470Z,0.00
2018-10-03T04:27:29.482Z,0.00
2018-10-03T04:28:29.479Z,0.00
2018-10-03T04:29:29.484Z,0.00
2018-10-03T04:30:29.506Z,0.00
2018-10-03T04:31:29.493Z,0.00
2018-10-03T04:32:29.508Z,0.00
2018-10-03T04:33:29.498Z,0.00
2018-10-03T04:34:29.517Z,0.00
2018-10-03T04:35:29.539Z,0.00
2018-10-03T04:36:29.528Z,0.00
2018-10-03T04:37:29.542Z,0.00
2018-10-03T04:38:29.532Z,0.00
2018-10-03T04:39:29.543Z,0.00
2018-10-03T04:40:29.532Z,0.00
2018-10-03T04:41:29.536Z,0.00
2018-10-03T04:42:29.539Z,0.00
2018-10-03T04:43:29.544Z,0.00
2018-10-03T04:44:29.577Z,0.00
2018-10-03T04:45:29.552Z,0.00
2018-10-03T04:46:29.557Z,0.00
2018-10-03T04:47:29.571Z,0.00
2018-10-03T04:48:29.570Z,0.00
2018-10-03T04:49:29.581Z,0.00
2018-10-03T04:50:29.578Z,0.00
2018-10-03T04:51:29.581Z,0.00
2018-10-03T04:52:29.595Z,0.00
2018-10-03T04:53:29.590Z,0.00
2018-10-03T04:54:29.593Z,0.00
2018-10-03T04:55:29.604Z,0.00
2018-10-03T04:56:29.605Z,0.00
2018-10-03T04:57:29.607Z,0.00
2018-10-03T04:58:29.618Z,0.00
2018-10-03T04:59:29.622Z,0.00
2018-10-03T05:00:29.646Z,0.00
2018-10-03T05:01:29.627Z,0.00
2018-10-03T05:02:29.657Z,0.00
2018-10-03T05:03:29.637Z,0.00
2018-10-03T05:04:29.642Z,0.00
2018-10-03T05:05:29.644Z,0.00
2018-10-03T05:06:29.649Z,0.00
2018-10-03T05:07:29.665Z,0.00
2018-10-03T05:08:29.685Z,0.00
2018-10-03T05:09:29.664Z,0.00
2018-10-03T05:10:29.678Z,0.00
2018-10-03T05:11:29.733Z,0.00
2018-10-03T05:12:29.705Z,0.00
2018-10-03T05:13:29.694Z,0.00
2018-10-03T05:14:29.692Z,0.00
2018-10-03T05:15:29.702Z,0.00
2018-10-03T05:16:29.695Z,0.00
2018-10-03T05:17:29.708Z,0.00
2018-10-03T05:18:29.718Z,0.00
2018-10-03T05:19:29.720Z,4.00
2018-10-03T05:20:29.712Z,4.00
2018-10-03T05:21:29.720Z,0.00
2018-10-03T05:22:29.721Z,0.00
2018-10-03T05:23:29.737Z,4.00
2018-10-03T05:24:29.745Z,4.00
2018-10-03T05:25:29.735Z,4.00
2018-10-03T05:26:29.752Z,4.00
2018-10-03T05:27:29.750Z,0.00
2018-10-03T05:28:29.751Z,4.00
2018-10-03T05:29:29.755Z,4.00
2018-10-03T05:30:29.773Z,4.00
2018-10-03T05:31:29.774Z,8.00
2018-10-03T05:32:29.771Z,8.00
2018-10-03T05:33:29.773Z,4.00
2018-10-03T05:34:29.780Z,8.00
2018-10-03T05:35:30.015Z,8.00
2018-10-03T05:36:29.786Z,8.00
2018-10-03T05:37:29.805Z,12.00
2018-10-03T05:38:29.810Z,12.00
2018-10-03T05:39:29.818Z,12.00
2018-10-03T05:40:29.850Z,12.00
2018-10-03T05:41:29.813Z,12.00
2018-10-03T05:42:29.828Z,12.00
2018-10-03T05:43:29.820Z,16.00
2018-10-03T05:44:29.835Z,16.00
2018-10-03T05:45:29.829Z,16.00
2018-10-03T05:46:29.836Z,16.00
2018-10-03T05:47:29.857Z,20.00
2018-10-03T05:48:29.885Z,20.00
2018-10-03T05:49:29.866Z,24.00
2018-10-03T05:50:29.857Z,24.00
2018-10-03T05:51:29.870Z,28.00
2018-10-03T05:52:29.862Z,28.00
2018-10-03T05:53:29.869Z,28.00
2018-10-03T05:54:29.906Z,36.00
2018-10-03T05:55:29.889Z,36.00
2018-10-03T05:56:29.895Z,36.00
2018-10-03T05:57:29.887Z,40.00
2018-10-03T05:58:29.902Z,40.00
2018-10-03T05:59:29.896Z,40.00
2018-10-03T06:00:29.901Z,44.00
2018-10-03T06:01:29.905Z,48.00
2018-10-03T06:02:29.921Z,48.00
2018-10-03T06:03:29.926Z,48.00
2018-10-03T06:04:30.060Z,48.00
2018-10-03T06:05:29.968Z,56.00
2018-10-03T06:06:29.928Z,56.00
2018-10-03T06:07:29.982Z,56.00
2018-10-03T06:08:29.948Z,56.00
2018-10-03T06:09:29.945Z,56.00
2018-10-03T06:10:29.951Z,64.00
2018-10-03T06:11:29.949Z,68.00
2018-10-03T06:12:30.158Z,72.00
2018-10-03T06:13:29.974Z,72.00
2018-10-03T06:14:29.979Z,72.00
2018-10-03T06:15:29.977Z,80.00
2018-10-03T06:16:29.987Z,88.00
2018-10-03T06:17:30.014Z,88.00
2018-10-03T06:18:30.055Z,88.00
2018-10-03T06:19:30.009Z,88.00
2018-10-03T06:20:30.003Z,88.00
2018-10-03T06:21:29.991Z,92.00
2018-10-03T06:22:30.211Z,88.00
2018-10-03T06:23:30.001Z,88.00
2018-10-03T06:24:30.010Z,96.00
2018-10-03T06:25:30.009Z,96.00
2018-10-03T06:26:30.027Z,100.00
2018-10-03T06:27:30.022Z,100.00
2018-10-03T06:28:30.237Z,104.00
2018-10-03T06:29:30.029Z,104.00
2018-10-03T06:30:30.034Z,108.00
2018-10-03T06:31:30.039Z,104.00
2018-10-03T06:32:30.054Z,104.00
2018-10-03T06:33:30.072Z,104.00
2018-10-03T06:34:30.062Z,108.00
2018-10-03T06:35:30.069Z,116.00
2018-10-03T06:36:30.062Z,116.00
2018-10-03T06:37:30.074Z,124.00
2018-10-03T06:38:30.081Z,116.00
2018-10-03T06:39:30.103Z,120.00
2018-10-03T06:40:30.169Z,124.00
2018-10-03T06:41:30.082Z,132.00
2018-10-03T06:42:30.089Z,140.00
2018-10-03T06:43:30.091Z,144.00
2018-10-03T06:44:30.173Z,144.00
2018-10-03T06:45:30.138Z,152.00
2018-10-03T06:46:30.107Z,152.00
2018-10-03T06:47:30.124Z,152.00
2018-10-03T06:48:30.123Z,156.00
2018-10-03T06:49:30.114Z,160.00
2018-10-03T06:50:30.134Z,156.00
2018-10-03T06:51:30.139Z,160.00
2018-10-03T06:52:30.131Z,160.00
2018-10-03T06:53:30.143Z,164.00
2018-10-03T06:54:30.135Z,160.00
2018-10-03T06:55:30.143Z,160.00
2018-10-03T06:56:30.157Z,172.00
2018-10-03T06:57:30.150Z,176.00
2018-10-03T06:58:30.152Z,172.00
2018-10-03T06:59:30.159Z,168.00
2018-10-03T07:00:30.175Z,164.00
2018-10-03T07:01:30.167Z,160.00
2018-10-03T07:02:30.169Z,160.00
2018-10-03T07:03:30.176Z,156.00
2018-10-03T07:04:30.192Z,152.00
2018-10-03T07:05:30.215Z,152.00
2018-10-03T07:06:30.202Z,156.00
2018-10-03T07:07:30.192Z,160.00
2018-10-03T07:08:30.206Z,164.00
2018-10-03T07:09:30.210Z,172.00
2018-10-03T07:10:30.233Z,172.00
2018-10-03T07:11:30.209Z,180.00
2018-10-03T07:12:30.215Z,184.00
2018-10-03T07:13:30.222Z,192.00
2018-10-03T07:14:30.225Z,196.00
2018-10-03T07:15:30.238Z,192.00
2018-10-03T07:16:30.445Z,192.00
2018-10-03T07:17:30.237Z,196.00
2018-10-03T07:18:30.267Z,200.00
2018-10-03T07:19:30.256Z,196.00
2018-10-03T07:20:30.246Z,188.00
2018-10-03T07:21:30.253Z,184.00
2018-10-03T07:22:30.269Z,184.00
2018-10-03T07:23:30.278Z,188.00
2018-10-03T07:24:30.468Z,192.00
2018-10-03T07:25:30.283Z,196.00
2018-10-03T07:26:30.282Z,208.00
2018-10-03T07:27:30.276Z,208.00
2018-10-03T07:28:30.294Z,216.00
2018-10-03T07:29:30.309Z,224.00
2018-10-03T07:30:30.299Z,224.00
2018-10-03T07:31:30.308Z,220.00
2018-10-03T07:32:30.333Z,220.00
2018-10-03T07:33:30.303Z,220.00
2018-10-03T07:34:30.306Z,224.00
2018-10-03T07:35:30.315Z,224.00
2018-10-03T07:36:30.317Z,236.00
2018-10-03T07:37:30.332Z,244.00
2018-10-03T07:38:30.325Z,252.00
2018-10-03T07:39:30.330Z,252.00
2018-10-03T07:40:30.357Z,252.00
2018-10-03T07:41:30.350Z,264.00
2018-10-03T07:42:30.341Z,260.00
2018-10-03T07:43:30.344Z,256.00
2018-10-03T07:44:30.351Z,248.00
2018-10-03T07:45:30.357Z,240.00
2018-10-03T07:46:30.370Z,232.00
2018-10-03T07:47:30.376Z,228.00
2018-10-03T07:48:30.383Z,228.00
2018-10-03T07:49:30.386Z,232.00
2018-10-03T07:50:30.378Z,224.00
2018-10-03T07:51:30.410Z,228.00
2018-10-03T07:52:30.440Z,232.00
2018-10-03T07:53:30.453Z,240.00
2018-10-03T07:54:30.399Z,256.00
2018-10-03T07:55:30.397Z,268.00
2018-10-03T07:56:30.426Z,272.00
2018-10-03T07:57:30.405Z,276.00
2018-10-03T07:58:30.414Z,276.00
2018-10-03T07:59:30.444Z,272.00
2018-10-03T08:00:30.434Z,292.00
2018-10-03T08:01:30.424Z,288.00
2018-10-03T08:02:30.428Z,300.00
2018-10-03T08:03:30.434Z,380.00
2018-10-03T08:04:30.437Z,400.00
2018-10-03T08:05:30.442Z,364.00
2018-10-03T08:06:30.651Z,400.00
2018-10-03T08:07:30.451Z,396.00
2018-10-03T08:08:30.457Z,412.00
2018-10-03T08:09:30.461Z,388.00
2018-10-03T08:10:30.466Z,360.00
2018-10-03T08:11:30.474Z,360.00
2018-10-03T08:12:30.485Z,364.00
2018-10-03T08:13:30.480Z,388.00
2018-10-03T08:14:30.481Z,380.00
2018-10-03T08:15:30.492Z,400.00
2018-10-03T08:16:30.523Z,388.00
2018-10-03T08:17:30.594Z,412.00
2018-10-03T08:18:30.715Z,408.00
2018-10-03T08:19:30.721Z,372.00
2018-10-03T08:20:30.534Z,376.00
2018-10-03T08:21:30.517Z,416.00
2018-10-03T08:22:30.529Z,432.00
2018-10-03T08:23:30.541Z,436.00
2018-10-03T08:24:30.594Z,396.00
2018-10-03T08:25:30.760Z,428.00
2018-10-03T08:26:30.552Z,352.00
2018-10-03T08:27:30.582Z,324.00
2018-10-03T08:28:30.559Z,332.00
2018-10-03T08:29:30.552Z,320.00
2018-10-03T08:30:30.568Z,368.00
2018-10-03T08:31:30.561Z,372.00
2018-10-03T08:32:30.688Z,384.00
2018-10-03T08:33:30.575Z,328.00
2018-10-03T08:34:30.575Z,356.00
2018-10-03T08:35:30.600Z,352.00
2018-10-03T08:36:30.598Z,320.00
2018-10-03T08:37:30.613Z,292.00
2018-10-03T08:38:30.650Z,328.00
2018-10-03T08:39:30.613Z,360.00
2018-10-03T08:40:30.602Z,340.00
2018-10-03T08:41:30.621Z,424.00
2018-10-03T08:42:30.612Z,424.00
2018-10-03T08:43:30.639Z,420.00
2018-10-03T08:44:30.621Z,436.00
2018-10-03T08:45:30.799Z,452.00
2018-10-03T08:46:30.630Z,448.00
2018-10-03T08:47:30.633Z,372.00
2018-10-03T08:48:30.671Z,424.00
2018-10-03T08:49:30.656Z,420.00
2018-10-03T08:50:30.650Z,424.00
2018-10-03T08:51:30.662Z,420.00
2018-10-03T08:52:30.692Z,416.00
2018-10-03T08:53:30.665Z,416.00
2018-10-03T08:54:30.676Z,480.00
2018-10-03T08:55:30.693Z,472.00
2018-10-03T08:56:30.688Z,460.00
2018-10-03T08:57:30.709Z,484.00
2018-10-03T08:58:30.776Z,464.00
2018-10-03T08:59:30.704Z,448.00
2018-10-03T09:00:30.728Z,436.00
2018-10-03T09:01:30.699Z,436.00
2018-10-03T09:02:30.718Z,416.00
2018-10-03T09:03:30.711Z,416.00
2018-10-03T09:04:30.713Z,452.00
2018-10-03T09:05:30.730Z,464.00
2018-10-03T09:06:30.736Z,484.00
2018-10-03T09:07:30.741Z,480.00
2018-10-03T09:08:30.743Z,460.00
2018-10-03T09:09:30.737Z,488.00
2018-10-03T09:10:30.740Z,464.00
2018-10-03T09:11:30.782Z,456.00
2018-10-03T09:12:30.762Z,504.00
2018-10-03T09:13:30.768Z,512.00
2018-10-03T09:14:30.990Z,488.00
2018-10-03T09:15:30.773Z,448.00
2018-10-03T09:16:30.797Z,472.00
2018-10-03T09:17:30.788Z,484.00
2018-10-03T09:18:30.828Z,488.00
2018-10-03T09:19:30.793Z,516.00
2018-10-03T09:20:30.812Z,472.00
2018-10-03T09:21:30.864Z,420.00
2018-10-03T09:22:30.809Z,496.00
2018-10-03T09:23:30.802Z,492.00
2018-10-03T09:24:30.808Z,500.00
2018-10-03T09:25:31.024Z,468.00
2018-10-03T09:26:31.032Z,408.00
2018-10-03T09:27:30.835Z,464.00
2018-10-03T09:28:30.943Z,320.00
2018-10-03T09:29:30.841Z,272.00
2018-10-03T09:30:30.843Z,240.00
2018-10-03T09:31:30.837Z,252.00
2018-10-03T09:32:30.869Z,352.00
2018-10-03T09:33:31.020Z,432.00
2018-10-03T09:34:30.854Z,412.00
2018-10-03T09:35:30.856Z,376.00
2018-10-03T09:36:30.862Z,408.00
2018-10-03T09:37:30.875Z,480.00
2018-10-03T09:38:30.868Z,472.00
2018-10-03T09:39:31.173Z,504.00
2018-10-03T09:40:30.880Z,544.00
2018-10-03T09:41:30.889Z,408.00
2018-10-03T09:42:30.889Z,364.00
2018-10-03T09:43:30.904Z,436.00
2018-10-03T09:44:30.932Z,408.00
2018-10-03T09:45:30.904Z,416.00
2018-10-03T09:46:30.919Z,412.00
2018-10-03T09:47:30.938Z,384.00
2018-10-03T09:48:30.927Z,404.00
2018-10-03T09:49:30.931Z,448.00
2018-10-03T09:50:30.933Z,420.00
2018-10-03T09:51:31.137Z,432.00
2018-10-03T09:52:30.935Z,444.00
2018-10-03T09:53:30.940Z,468.00
2018-10-03T09:54:30.945Z,464.00
2018-10-03T09:55:30.964Z,536.00
2018-10-03T09:56:30.973Z,488.00
2018-10-03T09:57:30.973Z,528.00
2018-10-03T09:58:31.166Z,512.00
2018-10-03T09:59:30.967Z,572.00
2018-10-03T10:00:31.155Z,596.00
2018-10-03T10:01:30.998Z,580.00
2018-10-03T10:02:30.993Z,584.00
2018-10-03T10:03:30.995Z,504.00
2018-10-03T10:04:30.989Z,392.00
2018-10-03T10:05:31.016Z,332.00
2018-10-03T10:06:31.012Z,356.00
2018-10-03T10:07:31.017Z,468.00
2018-10-03T10:08:31.036Z,572.00
2018-10-03T10:09:31.244Z,512.00
2018-10-03T10:10:31.032Z,372.00
2018-10-03T10:11:31.209Z,352.00
2018-10-03T10:12:31.052Z,408.00
2018-10-03T10:13:31.032Z,536.00
2018-10-03T10:14:31.044Z,548.00
2018-10-03T10:15:31.045Z,652.00
2018-10-03T10:16:31.045Z,472.00
2018-10-03T10:17:31.060Z,376.00
2018-10-03T10:18:31.084Z,376.00
2018-10-03T10:19:31.061Z,364.00
2018-10-03T10:20:31.069Z,404.00
2018-10-03T10:21:31.095Z,436.00
2018-10-03T10:22:31.280Z,476.00
2018-10-03T10:23:31.078Z,588.00
2018-10-03T10:24:31.106Z,452.00
2018-10-03T10:25:31.089Z,380.00
2018-10-03T10:26:31.094Z,480.00
2018-10-03T10:27:31.114Z,616.00
2018-10-03T10:28:31.103Z,572.00
2018-10-03T10:29:31.111Z,476.00
2018-10-03T10:30:31.312Z,460.00
2018-10-03T10:31:31.141Z,396.00
2018-10-03T10:32:31.159Z,416.00
2018-10-03T10:33:31.138Z,524.00
2018-10-03T10:34:31.131Z,508.00
2018-10-03T10:35:31.138Z,400.00
2018-10-03T10:36:31.142Z,352.00
2018-10-03T10:37:31.145Z,376.00
2018-10-03T10:38:31.153Z,412.00
2018-10-03T10:39:31.167Z,400.00
2018-10-03T10:40:31.343Z,424.00
2018-10-03T10:41:31.392Z,380.00
2018-10-03T10:42:31.379Z,352.00
2018-10-03T10:43:31.355Z,360.00
2018-10-03T10:44:31.182Z,424.00
2018-10-03T10:45:31.198Z,464.00
2018-10-03T10:46:31.193Z,552.00
2018-10-03T10:47:31.191Z,428.00
2018-10-03T10:48:31.220Z,372.00
2018-10-03T10:49:31.217Z,384.00
2018-10-03T10:50:31.215Z,324.00
2018-10-03T10:51:31.222Z,312.00
2018-10-03T10:52:31.235Z,312.00
2018-10-03T10:53:31.232Z,320.00
2018-10-03T10:54:31.223Z,372.00
2018-10-03T10:55:31.444Z,388.00
2018-10-03T10:56:31.258Z,388.00
2018-10-03T10:57:31.236Z,336.00
2018-10-03T10:58:31.255Z,336.00
2018-10-03T10:59:31.290Z,384.00
2018-10-03T11:00:31.267Z,384.00
2018-10-03T11:01:31.272Z,440.00
2018-10-03T11:02:31.465Z,416.00
2018-10-03T11:03:31.295Z,420.00
2018-10-03T11:04:31.285Z,384.00
2018-10-03T11:05:31.308Z,372.00
2018-10-03T11:06:31.305Z,376.00
2018-10-03T11:07:31.287Z,356.00
2018-10-03T11:08:31.313Z,380.00
2018-10-03T11:09:31.308Z,456.00
2018-10-03T11:10:31.314Z,488.00
2018-10-03T11:11:31.303Z,452.00
2018-10-03T11:12:31.312Z,592.00
2018-10-03T11:13:31.313Z,572.00
2018-10-03T11:14:31.318Z,484.00
2018-10-03T11:15:31.352Z,512.00
2018-10-03T11:16:31.341Z,556.00
2018-10-03T11:17:31.332Z,592.00
2018-10-03T11:18:31.338Z,616.00
2018-10-03T11:19:31.365Z,592.00
2018-10-03T11:20:31.357Z,500.00
2018-10-03T11:21:31.369Z,500.00
2018-10-03T11:22:31.372Z,600.00
2018-10-03T11:23:31.482Z,600.00
2018-10-03T11:24:31.579Z,576.00
2018-10-03T11:25:31.370Z,552.00
2018-10-03T11:26:31.376Z,576.00
2018-10-03T11:27:31.383Z,588.00
2018-10-03T11:28:31.393Z,580.00
2018-10-03T11:29:31.389Z,488.00
2018-10-03T11:30:31.596Z,420.00
2018-10-03T11:31:31.603Z,456.00
2018-10-03T11:32:31.404Z,472.00
2018-10-03T11:33:31.417Z,384.00
2018-10-03T11:34:31.425Z,460.00
2018-10-03T11:35:31.426Z,340.00
2018-10-03T11:36:31.423Z,392.00
2018-10-03T11:37:31.439Z,392.00
2018-10-03T11:38:31.429Z,428.00
2018-10-03T11:39:31.461Z,400.00
2018-10-03T11:40:31.455Z,316.00
2018-10-03T11:41:31.666Z,316.00
2018-10-03T11:42:31.454Z,364.00
2018-10-03T11:43:31.457Z,468.00
2018-10-03T11:44:31.459Z,544.00
2018-10-03T11:45:31.462Z,548.00
2018-10-03T11:46:31.482Z,668.00
2018-10-03T11:47:31.485Z,684.00
2018-10-03T11:48:31.492Z,692.00
2018-10-03T11:49:31.499Z,680.00
2018-10-03T11:50:31.506Z,672.00
2018-10-03T11:51:31.493Z,600.00
2018-10-03T11:52:31.497Z,516.00
2018-10-03T11:53:31.505Z,456.00
2018-10-03T11:54:31.534Z,448.00
2018-10-03T11:55:31.524Z,468.00
2018-10-03T11:56:31.516Z,544.00
2018-10-03T11:57:31.550Z,564.00
2018-10-03T11:58:31.741Z,564.00
2018-10-03T11:59:31.574Z,472.00
2018-10-03T12:00:31.740Z,440.00
2018-10-03T12:01:31.539Z,472.00
2018-10-03T12:02:31.546Z,476.00
2018-10-03T12:03:31.619Z,424.00
2018-10-03T12:04:31.759Z,336.00
2018-10-03T12:05:31.611Z,304.00
2018-10-03T12:06:31.627Z,372.00
2018-10-03T12:07:31.570Z,540.00
2018-10-03T12:08:31.575Z,548.00
2018-10-03T12:09:31.788Z,464.00
2018-10-03T12:10:31.584Z,492.00
2018-10-03T12:11:31.605Z,496.00
2018-10-03T12:12:31.594Z,592.00
2018-10-03T12:13:31.670Z,616.00
2018-10-03T12:14:31.607Z,596.00
2018-10-03T12:15:31.611Z,580.00
2018-10-03T12:16:31.615Z,512.00
2018-10-03T12:17:31.822Z,656.00
2018-10-03T12:18:31.641Z,668.00
2018-10-03T12:19:31.629Z,704.00
2018-10-03T12:20:31.635Z,632.00
2018-10-03T12:21:31.642Z,648.00
2018-10-03T12:22:31.645Z,672.00
2018-10-03T12:23:31.649Z,624.00
2018-10-03T12:24:31.682Z,636.00
2018-10-03T12:25:31.658Z,564.00
2018-10-03T12:26:31.867Z,616.00
2018-10-03T12:27:31.680Z,504.00
2018-10-03T12:28:31.674Z,552.00
2018-10-03T12:29:31.884Z,572.00
2018-10-03T12:30:31.890Z,504.00
2018-10-03T12:31:31.689Z,440.00
2018-10-03T12:32:31.697Z,376.00
2018-10-03T12:33:31.754Z,464.00
2018-10-03T12:34:31.916Z,560.00
2018-10-03T12:35:31.724Z,568.00
2018-10-03T12:36:31.718Z,636.00
2018-10-03T12:37:31.921Z,712.00
2018-10-03T12:38:31.739Z,708.00
2018-10-03T12:39:31.932Z,792.00
2018-10-03T12:40:31.735Z,904.00
2018-10-03T12:41:31.739Z,728.00
2018-10-03T12:42:31.756Z,800.00
2018-10-03T12:43:31.761Z,808.00
2018-10-03T12:44:31.756Z,680.00
2018-10-03T12:45:31.977Z,472.00
2018-10-03T12:46:31.980Z,364.00
2018-10-03T12:47:31.770Z,340.00
2018-10-03T12:48:31.791Z,336.00
2018-10-03T12:49:31.782Z,340.00
2018-10-03T12:50:31.990Z,292.00
2018-10-03T12:51:31.808Z,280.00
2018-10-03T12:52:31.807Z,308.00